Time;durP1;ratioP1;P1;durP2;ratioP2;P2;SDS_P1;SDS_P2;PMS_P1;PMS_P2;Temp;Humidity;BMP_temperature;BMP_pressure;BME280_temperature;BME280_humidity;BME280_pressure;Samples;Min_cycle;Max_cycle;Signal;HPM_P1;HPM_P2
2022/04/03 00:04:11;;;;;;;;;;;;;;;1.44;49.84;97528.72;12765692;23;19947;-83
2022/04/03 00:09:33;;;;;;;;;;;;;;;1.49;51.15;97530.59;12732703;23;19925;-82
2022/04/03 00:14:55;;;;;;;;;;;;;;;1.60;50.29;97530.31;12752017;23;19921;-83
2022/04/03 00:20:17;;;;;;;;;;;;;;;1.75;50.97;97529.69;12730902;23;19920;-84
2022/04/03 00:25:39;;;;;;;;;;;;;;;1.85;50.31;97538.94;12752406;23;19920;-82
2022/04/03 00:31:02;;;;;;;;;;;;;;;1.92;50.24;97538.22;12733679;23;19920;-82
2022/04/03 00:36:24;;;;;;;;;;;;;;;1.95;50.08;97547.44;12793873;23;19912;-83
2022/04/03 00:41:47;;;;;;;;;;;;;;;1.93;51.16;97550.72;12757252;23;19927;-83
2022/04/03 00:47:08;;;;;;;;;;;;;;;1.93;49.92;97553.47;12756631;23;19949;-83
2022/04/03 00:52:31;;;;;;;;;;;;;;;1.86;50.72;97559.66;12736372;23;20160;-82
2022/04/03 00:57:52;;;;;;;;;;;;;;;1.86;50.75;97562.41;12756787;23;19921;-83
2022/04/03 01:03:14;;;;;;;;;;;;;;;1.86;50.90;97562.41;12768658;23;19924;-83
2022/04/03 01:08:36;;;;;;;;;;;;;;;1.84;50.58;97562.22;12776639;23;19960;-82
2022/04/03 01:13:58;;;;;;;;;;;;;;;1.83;50.77;97566.22;12732222;23;19968;-83
2022/04/03 01:19:20;;;;;;;;;;;;;;;1.79;51.20;97576.84;12756350;23;19936;-83
2022/04/03 01:24:42;;;;;;;;;;;;;;;1.74;50.60;97583.25;12755769;23;19912;-83
2022/04/03 01:30:04;;;;;;;;;;;;;;;1.58;51.37;97585.13;12776844;23;19917;-84
2022/04/03 01:35:29;;;;;;;;;;;;;;;1.44;51.61;97589.97;12756172;23;19996;-84
2022/04/03 01:40:51;;;;;;;;;;;;;;;1.42;51.74;97584.25;12775617;23;19927;-84
2022/04/03 01:46:12;;;;;;;;;;;;;;;1.42;51.21;97584.25;12776201;23;19920;-83
2022/04/03 01:51:34;;;;;;;;;;;;;;;1.43;52.26;97594.00;12775130;23;19916;-82
2022/04/03 01:56:56;;;;;;;;;;;;;;;1.51;51.56;97591.31;12776200;23;19904;-83
2022/04/03 02:02:19;;;;;;;;;;;;;;;1.53;51.56;97588.75;12730705;23;19936;-83
2022/04/03 02:07:41;;;;;;;;;;;;;;;1.55;51.82;97596.50;12756365;23;19928;-83
2022/04/03 02:13:05;;;;;;;;;;;;;;;1.59;51.70;97597.63;12775165;23;19920;-82
2022/04/03 02:18:26;;;;;;;;;;;;;;;1.57;51.71;97599.44;12754810;23;19927;-82
2022/04/03 02:23:48;;;;;;;;;;;;;;;1.59;51.79;97616.88;12773983;23;19968;-81
2022/04/03 02:29:10;;;;;;;;;;;;;;;1.59;52.19;97605.13;12774190;23;20356;-82
2022/04/03 02:34:31;;;;;;;;;;;;;;;1.51;51.54;97612.59;12775999;23;19912;-84
2022/04/03 02:39:53;;;;;;;;;;;;;;;1.54;51.91;97608.75;12711865;23;19953;-82
2022/04/03 02:45:17;;;;;;;;;;;;;;;1.54;51.95;97606.72;12776119;23;19916;-83
2022/04/03 02:50:40;;;;;;;;;;;;;;;1.55;51.95;97624.00;12775677;23;19905;-79
2022/04/03 02:56:02;;;;;;;;;;;;;;;1.48;51.20;97619.91;12693522;23;20236;-82
2022/04/03 03:01:24;;;;;;;;;;;;;;;1.47;52.39;97615.69;12714287;23;19921;-83
2022/04/03 03:06:45;;;;;;;;;;;;;;;1.48;52.19;97616.41;12694852;23;19917;-83
2022/04/03 03:12:07;;;;;;;;;;;;;;;1.51;51.78;97620.84;12694634;23;19905;-84
2022/04/03 03:17:28;;;;;;;;;;;;;;;1.46;52.08;97616.22;12714956;23;19920;-83
2022/04/03 03:22:50;;;;;;;;;;;;;;;1.46;52.27;97613.47;12714698;23;19912;-83
2022/04/03 03:28:12;;;;;;;;;;;;;;;1.40;52.17;97621.84;12694528;23;19921;-82
2022/04/03 03:33:34;;;;;;;;;;;;;;;1.36;52.56;97629.69;12714174;23;19912;-83
2022/04/03 03:38:55;;;;;;;;;;;;;;;1.39;52.44;97632.09;12715198;23;19927;-83
2022/04/03 03:44:17;;;;;;;;;;;;;;;1.37;52.12;97634.66;12711655;23;19974;-83
2022/04/03 03:49:38;;;;;;;;;;;;;;;1.36;52.07;97638.69;12674154;23;19928;-83
2022/04/03 03:54:59;;;;;;;;;;;;;;;1.33;52.26;97642.50;12694857;23;19912;-85
2022/04/03 04:00:21;;;;;;;;;;;;;;;1.37;52.11;97651.16;12692030;23;20156;-81
2022/04/03 04:05:42;;;;;;;;;;;;;;;1.41;52.51;97657.06;12694339;23;19925;-81
2022/04/03 04:11:03;;;;;;;;;;;;;;;1.38;52.08;97657.41;12692369;23;19978;-83
2022/04/03 04:16:26;;;;;;;;;;;;;;;1.36;51.96;97668.94;12695871;23;19905;-84
2022/04/03 04:21:47;;;;;;;;;;;;;;;1.28;52.79;97676.38;12695258;23;19948;-84
2022/04/03 04:27:08;;;;;;;;;;;;;;;1.31;52.72;97683.53;12714469;23;19949;-84
2022/04/03 04:32:30;;;;;;;;;;;;;;;1.26;52.44;97689.91;12708824;23;19912;-83
2022/04/03 04:37:52;;;;;;;;;;;;;;;1.32;52.75;97701.50;12710244;23;19948;-82
2022/04/03 04:43:13;;;;;;;;;;;;;;;1.35;52.57;97705.19;12691545;23;19912;-81
2022/04/03 04:48:35;;;;;;;;;;;;;;;1.37;52.65;97710.94;12713979;23;19931;-84
2022/04/03 04:53:56;;;;;;;;;;;;;;;1.34;52.98;97723.72;12694380;23;19953;-82
2022/04/03 04:59:17;;;;;;;;;;;;;;;1.36;52.79;97734.94;12714520;23;19921;-85
2022/04/03 05:04:39;;;;;;;;;;;;;;;1.41;53.11;97731.31;12700952;23;19927;-83
2022/04/03 05:10:01;;;;;;;;;;;;;;;1.41;53.34;97739.56;12693418;23;19962;-84
2022/04/03 05:15:29;;;;;;;;;;;;;;;1.51;52.92;97744.63;12676709;23;19921;-84
2022/04/03 05:20:51;;;;;;;;;;;;;;;1.55;52.73;97742.31;12734334;23;19905;-82
2022/04/03 05:26:13;;;;;;;;;;;;;;;1.72;52.74;97750.91;12685243;23;19919;-83
2022/04/03 05:31:38;;;;;;;;;;;;;;;1.89;52.38;97759.53;12742235;23;19908;-81
2022/04/03 05:37:01;;;;;;;;;;;;;;;1.98;52.51;97772.84;12737223;23;19966;-82
2022/04/03 05:42:22;;;;;;;;;;;;;;;2.13;52.32;97774.28;12736629;23;19904;-84
2022/04/03 05:47:43;;;;;;;;;;;;;;;2.35;51.96;97787.50;12777564;23;19904;-81
2022/04/03 05:53:06;;;;;;;;;;;;;;;2.52;51.63;97790.56;12737685;23;19909;-83
2022/04/03 05:58:29;;;;;;;;;;;;;;;3.14;51.14;97800.00;12777935;23;19916;-82
2022/04/03 06:03:50;;;;;;;;;;;;;;;3.92;49.84;97799.75;12732614;23;19912;-83
2022/04/03 06:09:12;;;;;;;;;;;;;;;4.47;48.93;97800.03;12733989;23;19911;-84
2022/04/03 06:14:35;;;;;;;;;;;;;;;4.34;48.35;97799.44;12819214;23;19927;-82
2022/04/03 06:19:59;;;;;;;;;;;;;;;4.40;48.50;97808.31;12881629;23;19927;-82
2022/04/03 06:25:23;;;;;;;;;;;;;;;5.00;48.31;97817.88;12817097;23;19920;-84
2022/04/03 06:30:46;;;;;;;;;;;;;;;5.93;47.54;97830.94;12799204;23;19911;-84
2022/04/03 06:36:08;;;;;;;;;;;;;;;6.39;46.07;97831.41;12819053;23;19904;-83
2022/04/03 06:41:32;;;;;;;;;;;;;;;6.59;44.34;97843.47;12799485;23;19904;-84
2022/04/03 06:46:53;;;;;;;;;;;;;;;9.05;41.36;97845.56;12819460;23;19925;-82
2022/04/03 06:52:15;;;;;;;;;;;;;;;10.13;38.25;97854.09;12774289;23;19928;-84
2022/04/03 06:57:37;;;;;;;;;;;;;;;9.18;37.14;97864.66;12795732;23;19920;-83
2022/04/03 07:02:58;;;;;;;;;;;;;;;9.70;34.66;97869.84;12851998;23;19940;-85
2022/04/03 07:08:20;;;;;;;;;;;;;;;9.38;39.06;97868.94;12818422;23;19917;-82
2022/04/03 07:13:41;;;;;;;;;;;;;;;9.85;35.77;97872.34;12834560;23;19920;-85
2022/04/03 07:19:04;;;;;;;;;;;;;;;12.67;36.61;97878.53;12812203;23;19911;-85
2022/04/03 07:30:31;;;;;;;;;;;;;;;11.13;33.76;97891.72;12894946;23;19915;-86
2022/04/03 07:35:52;;;;;;;;;;;;;;;11.96;32.36;97890.88;12908646;23;19931;-83
2022/04/03 07:41:14;;;;;;;;;;;;;;;9.35;34.24;97908.34;12864584;23;19920;-86
2022/04/03 07:46:36;;;;;;;;;;;;;;;8.81;35.41;97917.56;12867095;23;19995;-80
2022/04/03 07:51:57;;;;;;;;;;;;;;;13.96;27.99;97918.41;12797772;23;19920;-80
2022/04/03 08:03:16;;;;;;;;;;;;;;;13.23;27.14;97916.97;12760900;23;20235;-79
2022/04/03 08:08:37;;;;;;;;;;;;;;;13.82;28.08;97939.34;12789994;23;19926;-84
2022/04/03 08:13:58;;;;;;;;;;;;;;;15.29;27.52;97931.25;12799744;23;19927;-85
2022/04/03 08:19:18;;;;;;;;;;;;;;;14.13;27.99;97939.72;12761757;23;19921;-86
2022/04/03 08:24:39;;;;;;;;;;;;;;;20.22;21.29;97933.84;12778362;23;19927;-85
2022/04/03 08:30:00;;;;;;;;;;;;;;;18.26;23.07;97947.84;12779521;23;20310;-86
2022/04/03 08:35:22;;;;;;;;;;;;;;;20.02;19.02;97955.84;12758550;23;19920;-85
2022/04/03 08:40:42;;;;;;;;;;;;;;;18.49;18.84;97952.28;12778779;23;20331;-86
2022/04/03 08:46:05;;;;;;;;;;;;;;;21.83;16.68;97961.34;12821070;23;19924;-77
2022/04/03 08:51:27;;;;;;;;;;;;;;;25.87;13.20;97964.72;12777514;23;19920;-80
2022/04/03 08:56:47;;;;;;;;;;;;;;;29.62;13.10;97966.66;12777955;23;19924;-79
2022/04/03 09:02:08;;;;;;;;;;;;;;;31.39;11.51;97964.56;12782460;23;19920;-83
2022/04/03 09:07:29;;;;;;;;;;;;;;;31.54;7.52;97962.94;12737923;23;19921;-83
2022/04/03 09:12:50;;;;;;;;;;;;;;;25.13;10.92;97970.22;12741870;23;19927;-84
2022/04/03 09:18:11;;;;;;;;;;;;;;;21.20;12.79;97967.34;12761964;23;19952;-80
2022/04/03 09:23:32;;;;;;;;;;;;;;;17.52;14.66;97960.97;12782254;23;19920;-78
2022/04/03 09:29:05;;;;;;;;;;;;;;;15.49;16.41;97965.31;12782163;23;19921;-83
2022/04/03 09:34:26;;;;;;;;;;;;;;;13.46;17.75;97984.25;12782561;23;19927;-84
2022/04/03 09:39:47;;;;;;;;;;;;;;;11.62;19.06;97979.56;12802845;23;19988;-81
2022/04/03 09:45:10;;;;;;;;;;;;;;;10.83;20.03;97972.09;12792748;23;19920;-79
2022/04/03 09:50:30;;;;;;;;;;;;;;;12.33;20.41;97978.63;12771322;23;19972;-79
2022/04/03 09:55:52;;;;;;;;;;;;;;;15.53;19.03;97974.69;12802229;23;20308;-81
2022/04/03 10:01:29;;;;;;;;;;;;;;;26.69;13.39;97971.91;12779240;23;19926;-85
2022/04/03 10:06:50;;;;;;;;;;;;;;;32.36;8.61;97968.31;12761103;23;19920;-81
2022/04/03 10:12:13;;;;;;;;;;;;;;;33.59;6.94;97961.06;12739562;23;19924;-83
2022/04/03 10:17:40;;;;;;;;;;;;;;;31.21;7.38;97959.72;12742820;23;19943;-82
2022/04/03 10:23:04;;;;;;;;;;;;;;;28.69;7.99;97955.41;12735840;23;20249;-84
2022/04/03 10:28:25;;;;;;;;;;;;;;;29.96;8.32;97958.59;12781400;23;20275;-85
2022/04/03 10:33:49;;;;;;;;;;;;;;;28.14;7.45;97943.88;12759309;23;19978;-83
2022/04/03 10:39:10;;;;;;;;;;;;;;;20.81;10.49;97949.16;12737762;23;19927;-82
2022/04/03 10:44:34;;;;;;;;;;;;;;;16.68;13.91;97948.00;12738117;23;19927;-82
2022/04/03 10:49:54;;;;;;;;;;;;;;;14.54;15.53;97956.78;12781103;23;20334;-84
2022/04/03 10:55:15;;;;;;;;;;;;;;;15.76;16.08;97947.72;12779738;23;20418;-77
2022/04/03 11:00:37;;;;;;;;;;;;;;;17.94;13.92;97952.88;12800053;23;19924;-74
2022/04/03 11:06:15;;;;;;;;;;;;;;;17.30;14.15;97946.59;12761884;23;19927;-75
2022/04/03 11:11:36;;;;;;;;;;;;;;;17.23;13.90;97942.03;12759092;23;19986;-74
2022/04/03 11:16:57;;;;;;;;;;;;;;;17.27;13.80;97936.56;12779117;23;19927;-75
2022/04/03 11:22:17;;;;;;;;;;;;;;;17.19;13.56;97950.34;12758548;23;19920;-76
2022/04/03 11:27:38;;;;;;;;;;;;;;;15.21;15.38;97950.50;12759334;23;19996;-80
2022/04/03 11:33:00;;;;;;;;;;;;;;;13.47;16.24;97940.09;12782089;23;19920;-80
2022/04/03 11:38:21;;;;;;;;;;;;;;;12.44;17.19;97951.28;12806057;23;19927;-78
2022/04/03 11:43:42;;;;;;;;;;;;;;;12.08;18.15;97944.81;12807804;23;19928;-78
2022/04/03 11:49:18;;;;;;;;;;;;;;;12.32;18.16;97942.84;12765022;23;19924;-79
2022/04/03 11:54:39;;;;;;;;;;;;;;;13.04;17.98;97934.72;12766269;23;19995;-78
2022/04/03 12:00:00;;;;;;;;;;;;;;;13.15;17.51;97936.06;12784668;23;19921;-77
2022/04/03 12:05:21;;;;;;;;;;;;;;;12.78;17.87;97931.03;12766147;23;20273;-78
2022/04/03 12:10:42;;;;;;;;;;;;;;;12.38;18.49;97934.84;12787405;23;20262;-78
2022/04/03 12:16:05;;;;;;;;;;;;;;;12.24;18.83;97931.84;12805755;23;19948;-77
2022/04/03 12:21:43;;;;;;;;;;;;;;;12.35;18.77;97919.25;12805416;23;19920;-77
2022/04/03 12:27:12;;;;;;;;;;;;;;;12.00;18.69;97928.25;12762730;23;19920;-77
2022/04/03 12:32:35;;;;;;;;;;;;;;;12.28;18.76;97918.13;12785434;23;19921;-77
2022/04/03 12:37:57;;;;;;;;;;;;;;;12.40;18.60;97917.44;12764783;23;20311;-77
2022/04/03 12:43:18;;;;;;;;;;;;;;;12.47;18.52;97930.50;12781296;23;19920;-79
2022/04/03 12:48:42;;;;;;;;;;;;;;;12.45;18.55;97927.53;12841831;23;19944;-80
2022/04/03 12:54:03;;;;;;;;;;;;;;;12.14;18.52;97922.81;12748099;23;20311;-77
2022/04/03 12:59:24;;;;;;;;;;;;;;;12.19;18.76;97913.34;12784091;23;19920;-78
2022/04/03 13:04:45;;;;;;;;;;;;;;;12.95;18.17;97904.75;12786175;23;20212;-75
2022/04/03 13:10:06;;;;;;;;;;;;;;;13.07;17.99;97908.28;12804877;23;19920;-77
2022/04/03 13:15:27;;;;;;;;;;;;;;;12.37;18.04;97915.84;12781980;23;19924;-77
2022/04/03 13:20:52;;;;;;;;;;;;;;;11.58;18.71;97901.00;12800511;23;19920;-76
2022/04/03 13:26:13;;;;;;;;;;;;;;;11.49;19.37;97896.22;12780708;23;20015;-76
2022/04/03 13:32:08;;;;;;;;;;;;;;;11.83;19.34;97892.16;12760176;23;19920;-76
2022/04/03 13:37:30;;;;;;;;;;;;;;;12.17;19.19;97896.44;12803597;23;19920;-77
2022/04/03 13:42:50;;;;;;;;;;;;;;;11.96;19.17;97890.88;12819225;23;19920;-82
2022/04/03 13:48:11;;;;;;;;;;;;;;;11.41;19.56;97898.47;12830345;23;19931;-82
2022/04/03 13:53:32;;;;;;;;;;;;;;;10.88;20.10;97897.69;12817623;23;19927;-78
2022/04/03 13:58:53;;;;;;;;;;;;;;;10.50;20.58;97896.47;12791945;23;19920;-81
2022/04/03 14:04:14;;;;;;;;;;;;;;;10.36;21.27;97895.50;12801864;23;19927;-79
2022/04/03 14:09:35;;;;;;;;;;;;;;;10.18;21.66;97894.19;12842961;23;19928;-84
2022/04/03 14:14:57;;;;;;;;;;;;;;;10.07;21.85;97886.41;12757458;23;19932;-80
2022/04/03 14:20:18;;;;;;;;;;;;;;;10.25;21.91;97893.31;12804896;23;19927;-82
2022/04/03 14:25:39;;;;;;;;;;;;;;;10.53;21.84;97884.16;12817644;23;19928;-84
2022/04/03 14:31:00;;;;;;;;;;;;;;;10.53;21.50;97877.84;12829128;23;19920;-76
2022/04/03 14:36:22;;;;;;;;;;;;;;;10.51;21.83;97874.88;12809482;23;20050;-80
2022/04/03 14:41:47;;;;;;;;;;;;;;;10.29;21.60;97876.84;12809428;23;19955;-78
2022/04/03 14:47:07;;;;;;;;;;;;;;;9.90;22.42;97876.88;12831167;23;19920;-79
2022/04/03 14:52:28;;;;;;;;;;;;;;;9.44;22.44;97885.34;12789332;23;20239;-79
2022/04/03 14:57:51;;;;;;;;;;;;;;;9.08;22.43;97880.59;12796015;23;19959;-81
2022/04/03 15:03:12;;;;;;;;;;;;;;;8.68;23.35;97878.97;12824085;23;19925;-81
2022/04/03 15:08:34;;;;;;;;;;;;;;;8.40;23.33;97883.09;12804269;23;19920;-80
2022/04/03 15:13:55;;;;;;;;;;;;;;;8.47;23.33;97881.50;12818142;23;19920;-79
2022/04/03 15:19:16;;;;;;;;;;;;;;;8.26;23.68;97879.91;12830791;23;19920;-79
2022/04/03 15:24:38;;;;;;;;;;;;;;;8.56;23.18;97889.16;12788064;23;19920;-79
2022/04/03 15:36:00;;;;;;;;;;;;;;;8.48;22.93;97889.28;12886063;23;19961;-85
2022/04/03 15:41:22;;;;;;;;;;;;;;;8.37;22.53;97889.06;12813127;23;19905;-84
2022/04/03 15:46:47;;;;;;;;;;;;;;;8.20;22.78;97887.03;12829419;23;19942;-81
2022/04/03 15:52:07;;;;;;;;;;;;;;;7.92;23.04;97886.28;12835958;23;19927;-81
2022/04/03 15:57:39;;;;;;;;;;;;;;;7.75;23.22;97889.78;12821054;23;20393;-77
2022/04/03 16:03:00;;;;;;;;;;;;;;;7.68;23.46;97890.59;12813637;23;20008;-80
2022/04/03 16:08:21;;;;;;;;;;;;;;;7.61;23.15;97894.19;12784639;23;19917;-80
2022/04/03 16:13:42;;;;;;;;;;;;;;;7.54;23.22;97892.25;12749160;23;19920;-77
2022/04/03 16:19:05;;;;;;;;;;;;;;;7.41;23.13;97901.59;12719519;23;20311;-78
2022/04/03 16:24:27;;;;;;;;;;;;;;;7.25;23.80;97903.06;12718680;23;19983;-76
2022/04/03 16:29:49;;;;;;;;;;;;;;;6.92;24.16;97902.41;12720456;23;20327;-78
2022/04/03 16:35:10;;;;;;;;;;;;;;;6.44;24.51;97919.16;12720229;23;20292;-78
2022/04/03 16:40:31;;;;;;;;;;;;;;;6.30;24.21;97918.69;12728182;23;19920;-77
2022/04/03 16:45:51;;;;;;;;;;;;;;;6.37;24.47;97917.19;12756677;23;19926;-77
2022/04/03 16:51:12;;;;;;;;;;;;;;;6.33;24.80;97916.81;12715934;23;19925;-77
2022/04/03 16:56:34;;;;;;;;;;;;;;;6.20;25.08;97909.50;12694764;23;19928;-77
2022/04/03 17:01:54;;;;;;;;;;;;;;;6.01;25.57;97915.50;12721752;23;19944;-79
2022/04/03 17:07:15;;;;;;;;;;;;;;;5.78;25.60;97916.81;12748630;23;19920;-76
2022/04/03 17:12:37;;;;;;;;;;;;;;;5.74;26.12;97919.97;12716725;23;19927;-76
2022/04/03 17:17:58;;;;;;;;;;;;;;;5.64;26.47;97911.50;12717269;23;19924;-77
2022/04/03 17:23:19;;;;;;;;;;;;;;;5.61;26.71;97925.75;12737947;23;19927;-80
2022/04/03 17:28:40;;;;;;;;;;;;;;;5.60;26.05;97921.50;12750591;23;19947;-80
2022/04/03 17:34:03;;;;;;;;;;;;;;;5.60;27.47;97933.31;12765041;23;19921;-80
2022/04/03 17:39:23;;;;;;;;;;;;;;;5.57;27.35;97928.13;12738022;23;20275;-81
2022/04/03 17:44:44;;;;;;;;;;;;;;;5.46;27.10;97929.25;12766261;23;19916;-79
2022/04/03 17:50:05;;;;;;;;;;;;;;;5.15;27.25;97925.78;12755938;23;19905;-78
2022/04/03 17:55:27;;;;;;;;;;;;;;;4.92;27.66;97936.81;12772267;23;20288;-77
2022/04/03 18:00:47;;;;;;;;;;;;;;;4.62;29.03;97934.75;12740794;23;19927;-77
2022/04/03 18:06:13;;;;;;;;;;;;;;;4.45;29.43;97929.78;12724953;23;19920;-79
2022/04/03 18:11:39;;;;;;;;;;;;;;;4.24;29.25;97935.38;12744952;23;19943;-83
2022/04/03 18:17:00;;;;;;;;;;;;;;;4.03;30.41;97932.00;12739271;23;19921;-83
2022/04/03 18:22:21;;;;;;;;;;;;;;;3.88;30.74;97938.22;12741937;23;19928;-83
2022/04/03 18:27:42;;;;;;;;;;;;;;;3.79;30.97;97949.03;12741228;23;19921;-83
2022/04/03 18:33:03;;;;;;;;;;;;;;;3.64;30.61;97938.63;12739242;23;19920;-81
2022/04/03 18:38:24;;;;;;;;;;;;;;;3.55;31.14;97939.84;12741402;23;20343;-81
2022/04/03 18:43:44;;;;;;;;;;;;;;;3.48;31.25;97948.09;12736294;23;19952;-83
2022/04/03 18:49:06;;;;;;;;;;;;;;;3.43;31.28;97946.94;12731835;23;19920;-83
2022/04/03 18:54:26;;;;;;;;;;;;;;;3.30;31.71;97947.78;12738570;23;20355;-84
2022/04/03 18:59:47;;;;;;;;;;;;;;;3.23;31.40;97953.25;12757323;23;20003;-83
2022/04/03 19:05:08;;;;;;;;;;;;;;;3.16;31.57;97958.16;12742563;23;19925;-82
2022/04/03 19:10:29;;;;;;;;;;;;;;;3.09;31.85;97956.09;12752521;23;19932;-84
2022/04/03 19:15:50;;;;;;;;;;;;;;;3.02;32.27;97956.75;12772356;23;19937;-83
2022/04/03 19:21:11;;;;;;;;;;;;;;;2.98;32.54;97961.84;12773333;23;19904;-82
2022/04/03 19:26:32;;;;;;;;;;;;;;;2.93;32.46;97956.50;12770706;23;20383;-81
2022/04/03 19:31:53;;;;;;;;;;;;;;;2.87;32.67;97953.84;12757934;23;20209;-80
2022/04/03 19:37:14;;;;;;;;;;;;;;;2.80;33.05;97957.31;12730949;23;19915;-83
2022/04/03 19:42:35;;;;;;;;;;;;;;;2.79;32.90;97956.53;12732498;23;19920;-83
2022/04/03 19:47:56;;;;;;;;;;;;;;;2.78;33.47;97966.09;12741983;23;20386;-82
2022/04/03 19:53:17;;;;;;;;;;;;;;;2.75;33.30;97969.91;12755503;23;19921;-79
2022/04/03 19:58:38;;;;;;;;;;;;;;;2.70;33.51;97957.03;12737050;23;19931;-79
2022/04/03 20:03:59;;;;;;;;;;;;;;;2.75;32.83;97958.16;12707239;23;19931;-79
2022/04/03 20:09:20;;;;;;;;;;;;;;;2.77;33.20;97972.13;12715200;23;20330;-79
2022/04/03 20:14:44;;;;;;;;;;;;;;;2.72;33.59;97967.50;12790762;23;19905;-82
2022/04/03 20:20:11;;;;;;;;;;;;;;;2.71;33.71;97963.28;12770793;23;19912;-82
2022/04/03 20:25:39;;;;;;;;;;;;;;;2.68;33.56;97964.31;12791476;23;19931;-78
2022/04/03 20:30:59;;;;;;;;;;;;;;;2.59;33.73;97966.25;12787877;23;19924;-81
2022/04/03 20:36:20;;;;;;;;;;;;;;;2.51;34.14;97970.97;12770390;23;19924;-78
2022/04/03 20:41:41;;;;;;;;;;;;;;;2.48;34.50;97972.03;12768849;23;19927;-81
2022/04/03 20:47:03;;;;;;;;;;;;;;;2.42;34.37;97965.91;12810774;23;19905;-81
2022/04/03 20:52:23;;;;;;;;;;;;;;;2.39;34.42;97963.47;12770379;23;19972;-81
2022/04/03 20:57:45;;;;;;;;;;;;;;;2.38;35.00;97971.00;12794514;23;19904;-83
2022/04/03 21:03:06;;;;;;;;;;;;;;;2.39;34.04;97968.97;12769071;23;19964;-80
2022/04/03 21:08:27;;;;;;;;;;;;;;;2.51;34.55;97970.97;12779134;23;19905;-80
2022/04/03 21:13:48;;;;;;;;;;;;;;;2.61;34.80;97968.50;12799575;23;19936;-79
2022/04/03 21:19:09;;;;;;;;;;;;;;;2.73;34.44;97971.75;12779198;23;19913;-83
2022/04/03 21:24:29;;;;;;;;;;;;;;;2.75;34.88;97972.69;12758234;23;19904;-82
2022/04/03 21:29:50;;;;;;;;;;;;;;;2.81;34.75;97961.53;12778865;23;19928;-79
2022/04/03 21:35:11;;;;;;;;;;;;;;;2.85;34.48;97950.91;12775580;23;19911;-83
2022/04/03 21:40:32;;;;;;;;;;;;;;;2.83;35.23;97958.97;12860920;23;19928;-82
2022/04/03 21:45:53;;;;;;;;;;;;;;;2.78;35.14;97959.84;12819128;23;19904;-82
2022/04/03 21:51:14;;;;;;;;;;;;;;;2.75;34.68;97958.16;12839706;23;19908;-80
2022/04/03 21:56:35;;;;;;;;;;;;;;;2.64;35.31;97953.66;12859956;23;19912;-83
2022/04/03 22:01:56;;;;;;;;;;;;;;;2.67;35.76;97954.56;12837823;23;19967;-79
2022/04/03 22:07:17;;;;;;;;;;;;;;;2.69;35.48;97952.75;12838788;23;19931;-84
2022/04/03 22:12:38;;;;;;;;;;;;;;;2.67;36.28;97949.06;12838862;23;19908;-82
2022/04/03 22:17:59;;;;;;;;;;;;;;;2.65;35.95;97949.59;12838461;23;19908;-81
2022/04/03 22:23:20;;;;;;;;;;;;;;;2.69;36.13;97952.03;12838453;23;19930;-81
2022/04/03 22:28:41;;;;;;;;;;;;;;;2.69;35.80;97947.25;12838629;23;19904;-83
2022/04/03 22:34:03;;;;;;;;;;;;;;;2.74;35.81;97959.44;12797351;23;19904;-80
2022/04/03 22:39:23;;;;;;;;;;;;;;;2.71;36.42;97964.00;12817447;23;19959;-82
2022/04/03 22:44:44;;;;;;;;;;;;;;;2.67;35.82;97955.31;12817850;23;19946;-81
2022/04/03 22:50:08;;;;;;;;;;;;;;;2.62;36.43;97956.19;12838135;23;19919;-82
2022/04/03 22:55:29;;;;;;;;;;;;;;;2.54;36.60;97956.13;12838721;23;19931;-83
2022/04/03 23:00:50;;;;;;;;;;;;;;;2.44;36.93;97960.59;12857512;23;19948;-82
2022/04/03 23:06:11;;;;;;;;;;;;;;;2.39;36.86;97955.94;12839504;23;19920;-84
2022/04/03 23:11:32;;;;;;;;;;;;;;;2.36;37.45;97948.00;12796826;23;19904;-83
2022/04/03 23:16:53;;;;;;;;;;;;;;;2.23;36.98;97941.28;12858206;23;19905;-82
2022/04/03 23:22:14;;;;;;;;;;;;;;;2.14;37.49;97938.97;12837163;23;19932;-84
2022/04/03 23:27:41;;;;;;;;;;;;;;;2.01;37.76;97939.72;12817008;23;19920;-84
2022/04/03 23:33:02;;;;;;;;;;;;;;;1.98;37.48;97926.28;12836370;23;19928;-83
2022/04/03 23:38:23;;;;;;;;;;;;;;;2.03;37.51;97935.69;12842979;23;19904;-80
2022/04/03 23:43:43;;;;;;;;;;;;;;;2.10;37.26;97932.28;12836491;23;19911;-81
2022/04/03 23:49:04;;;;;;;;;;;;;;;2.12;38.00;97927.72;12828530;23;19904;-82
2022/04/03 23:54:27;;;;;;;;;;;;;;;2.14;37.63;97921.69;12810184;23;19904;-81
2022/04/03 23:59:48;;;;;;;;;;;;;;;2.17;37.89;97915.84;12830899;23;20532;-79
